George Allen — WDF9749 — position and weather

sailwx.info

Track history (hours):
 
Tides and Currents Weather Stations Pressure Air Temp Water Temp Dewpoint Dewpoint Depression Visibility Wind Speed Wind Dir Waves Ship Positions

George Allen

Owner: Blessey Enterprises, Inc., Harahan, LA. More information available from US FCC via Universal Licensing System and Coast Guard Vessel Documentation Center.

Last reported at 2018-Jul-20 10:30 UTC. Time now 2018-Jul-20 10:51 UTC.
Position N 29°47' W 095°05'.

Length 23 m; draft 3.5 m.

Type: Towing. MMSI: 367508440.

Date/timePositionNaut miles runAvg speedWind from/ knotsBaromVisibWave heightAir tempDewpointWater temp
2018-Jul-20 10:30N 29°47' W 095°05'0 0.0
2018-Jul-20 10:00N 29°47' W 095°05'0 0.0
2018-Jul-20 09:30N 29°47' W 095°05'0 0.0
2018-Jul-20 09:00N 29°47' W 095°05'0 0.0
2018-Jul-20 08:30N 29°47' W 095°05'0 0.0
2018-Jul-20 08:00N 29°47' W 095°05'0 0.0
2018-Jul-20 07:30N 29°47' W 095°05'0 0.0
2018-Jul-20 07:00N 29°47' W 095°05'0 0.0
2018-Jul-20 06:30N 29°47' W 095°05'0 0.0
2018-Jul-20 06:00N 29°47' W 095°05'0 0.0
2018-Jul-20 05:30N 29°47' W 095°05'0 0.0
2018-Jul-20 05:00N 29°47' W 095°05'0 0.0
2018-Jul-20 04:30N 29°47' W 095°05'0 0.0
2018-Jul-20 03:56N 29°47' W 095°05'0 0.0
2018-Jul-20 03:06N 29°47' W 095°05'0 0.0
2018-Jul-20 02:59N 29°47' W 095°05'0 0.0
2018-Jul-20 02:30N 29°47' W 095°05'3 0.4
2018-Jul-19 20:12N 29°45' W 095°04'1 0.4
2018-Jul-19 17:14N 29°44' W 095°03'0 0.0
2018-Jul-19 16:48N 29°44' W 095°03'0 0.0
2018-Jul-19 15:32N 29°44' W 095°03'0 0.0
2018-Jul-19 15:26N 29°44' W 095°03'0 0.0
2018-Jul-19 14:59N 29°44' W 095°03'0 0.0
2018-Jul-19 13:58N 29°44' W 095°03'0 0.0
2018-Jul-19 13:22N 29°44' W 095°03'0 0.0
2018-Jul-19 12:59N 29°44' W 095°03'0 0.0
2018-Jul-19 12:30N 29°44' W 095°03'0 0.0
2018-Jul-19 12:00N 29°44' W 095°03'0 0.0
2018-Jul-19 11:29N 29°44' W 095°03'0 0.0
2018-Jul-19 10:59N 29°44' W 095°03'0 0.0
2018-Jul-19 10:30N 29°44' W 095°03'0 0.0
2018-Jul-19 10:00N 29°44' W 095°03'0 0.0
2018-Jul-19 09:30N 29°44' W 095°03'0 0.0
2018-Jul-19 09:00N 29°44' W 095°03'0 0.0
2018-Jul-19 08:30N 29°44' W 095°03'0 0.0
2018-Jul-19 08:00N 29°44' W 095°03'0 0.0
2018-Jul-19 07:30N 29°44' W 095°03'0 0.0
2018-Jul-19 06:59N 29°44' W 095°03'0 0.0
2018-Jul-19 06:30N 29°44' W 095°03'0 0.0
2018-Jul-19 06:00N 29°44' W 095°03'0 0.0
2018-Jul-19 05:30N 29°44' W 095°03'0 0.0
2018-Jul-19 05:00N 29°44' W 095°03'0 0.0
2018-Jul-19 04:30N 29°44' W 095°03'0 0.0
2018-Jul-19 03:58N 29°44' W 095°03'0 0.0
2018-Jul-19 03:29N 29°44' W 095°03'0 0.0
2018-Jul-19 02:54N 29°44' W 095°03'0 0.0
2018-Jul-19 02:27N 29°44' W 095°03'0 0.1
2018-Jul-19 02:00N 29°44' W 095°03'4 0.5
2018-Jul-18 17:28N 29°47' W 095°05'0 0.0
2018-Jul-18 16:54N 29°47' W 095°05'0 0.0
2018-Jul-18 16:04N 29°47' W 095°05'0 0.0
2018-Jul-18 14:20N 29°47' W 095°05'0 0.0
2018-Jul-18 13:05N 29°47' W 095°05'0 1.4
2018-Jul-18 13:00N 29°47' W 095°05'0 0.0
2018-Jul-18 12:25N 29°47' W 095°05'0 0.1
2018-Jul-18 11:56N 29°47' W 095°05'0 0.0
2018-Jul-18 11:29N 29°47' W 095°05'0 0.0
2018-Jul-18 10:28N 29°47' W 095°05'0 0.1
2018-Jul-18 10:00N 29°47' W 095°05'0 0.0
2018-Jul-18 09:30N 29°47' W 095°05'0 0.0
2018-Jul-18 09:00N 29°47' W 095°05'0 0.0
2018-Jul-18 08:26N 29°47' W 095°05'0 0.0
2018-Jul-18 07:57N 29°47' W 095°05'0 0.1
2018-Jul-18 07:22N 29°47' W 095°05'0 0.0
2018-Jul-18 06:57N 29°47' W 095°05'0 0.0
2018-Jul-18 06:30N 29°47' W 095°05'0 0.0
2018-Jul-18 05:53N 29°47' W 095°05'0 0.2
2018-Jul-18 05:30N 29°47' W 095°05'0 0.2
2018-Jul-18 04:57N 29°47' W 095°05'0 0.0
2018-Jul-18 04:30N 29°47' W 095°05'0 0.0
2018-Jul-18 04:00N 29°47' W 095°05'0 0.0
2018-Jul-18 03:30N 29°47' W 095°05'2 0.8
2018-Jul-18 00:30N 29°45' W 095°04'1 0.9
2018-Jul-17 22:56N 29°44' W 095°03'0 0.2
2018-Jul-17 22:30N 29°44' W 095°03'4 2.2
2018-Jul-17 20:48N 29°47' W 095°05'0 0.0
2018-Jul-17 20:12N 29°47' W 095°05'0 0.0
2018-Jul-17 19:50N 29°47' W 095°05'0 0.0
2018-Jul-17 19:30N 29°47' W 095°05'0 0.0
2018-Jul-17 18:48N 29°47' W 095°05'0 0.0
2018-Jul-17 18:28N 29°47' W 095°05'0 0.0
2018-Jul-17 18:00N 29°47' W 095°05'0 0.0
2018-Jul-17 14:03N 29°47' W 095°05'0 0.3
2018-Jul-17 13:58N 29°47' W 095°05'1 1.6
2018-Jul-17 13:21N 29°46' W 095°05'0 0.9
2018-Jul-17 13:00N 29°46' W 095°05'3 5.2
2018-Jul-17 12:30N 29°44' W 095°03'2 3.0
2018-Jul-17 12:00N 29°44' W 095°01'1 1.1
2018-Jul-17 11:30N 29°44' W 095°02'4 7.1
2018-Jul-17 11:00N 29°46' W 095°05'0 0.6
2018-Jul-17 10:30N 29°47' W 095°05'0 0.0
2018-Jul-17 09:59N 29°47' W 095°05'0 0.0
2018-Jul-17 09:30N 29°47' W 095°05'0 0.0
2018-Jul-17 09:00N 29°47' W 095°05'0 0.0
2018-Jul-17 08:30N 29°47' W 095°05'0 0.0
2018-Jul-17 07:59N 29°47' W 095°05'0 0.0
2018-Jul-17 07:30N 29°47' W 095°05'0 0.0
2018-Jul-17 07:00N 29°47' W 095°05'0 0.1
2018-Jul-17 06:30N 29°47' W 095°05'0 0.1
2018-Jul-17 06:00N 29°47' W 095°05'1 1.2
2018-Jul-17 05:30N 29°47' W 095°05'0 0.1
2018-Jul-17 05:00N 29°47' W 095°05'0 0.0
2018-Jul-17 04:30N 29°47' W 095°05'0 0.1
2018-Jul-17 03:59N 29°47' W 095°05'0 0.3
2018-Jul-17 03:27N 29°47' W 095°05'0 0.0
2018-Jul-16 13:31N 29°47' W 095°05'0 0.0
2018-Jul-16 13:30N 29°47' W 095°05'0 0.0
2018-Jul-16 13:00N 29°47' W 095°05'0 0.1
2018-Jul-16 12:27N 29°47' W 095°05'0 0.3
2018-Jul-16 12:00N 29°47' W 095°05'0 0.0
2018-Jul-16 11:27N 29°47' W 095°05'0 0.1
2018-Jul-16 09:43N 29°47' W 095°05'0 0.0
2018-Jul-16 09:18N 29°47' W 095°05'0 0.0
2018-Jul-16 08:59N 29°47' W 095°05'0 0.0
2018-Jul-16 08:30N 29°47' W 095°05'0 0.0
2018-Jul-16 07:57N 29°47' W 095°05'0 0.1
2018-Jul-16 07:28N 29°47' W 095°05'1 1.3
2018-Jul-16 07:00N 29°47' W 095°05'0 0.4
2018-Jul-16 06:21N 29°47' W 095°05'2 2.6
2018-Jul-16 05:44N 29°46' W 095°06'1 1.4
2018-Jul-16 05:04N 29°46' W 095°07'0 0.2
2018-Jul-16 04:59N 29°46' W 095°07'0 0.0
2018-Jul-16 03:48N 29°46' W 095°07'0 0.0
2018-Jul-16 03:29N 29°46' W 095°07'1 0.1
2018-Jul-15 12:01N 29°45' W 095°06'0 5.0
2018-Jul-15 11:55N 29°46' W 095°05'3 6.8
2018-Jul-15 11:30N 29°44' W 095°03'0 0.0
2018-Jul-15 04:09N 29°44' W 095°03'0 0.0
2018-Jul-15 03:58N 29°44' W 095°03'0 0.1
2018-Jul-15 03:27N 29°44' W 095°03'0 0.0
2018-Jul-15 02:51N 29°44' W 095°03'0 0.0
2018-Jul-15 02:27N 29°44' W 095°03'0 0.0
2018-Jul-15 02:00N 29°44' W 095°03'0 0.0
2018-Jul-15 01:30N 29°44' W 095°03'0 0.0
2018-Jul-15 01:00N 29°44' W 095°03'0 0.0
2018-Jul-15 00:02N 29°44' W 095°03'0 0.1
2018-Jul-14 23:59N 29°44' W 095°03'0 0.0
2018-Jul-14 23:29N 29°44' W 095°03'0 0.1
2018-Jul-14 22:47N 29°44' W 095°03'0 0.0
2018-Jul-14 11:35N 29°44' W 095°03'0 0.0
2018-Jul-14 11:27N 29°44' W 095°03'0 0.0
2018-Jul-14 06:40N 29°44' W 095°03'0 0.0
2018-Jul-14 06:21N 29°44' W 095°03'0 0.0
2018-Jul-14 02:45N 29°44' W 095°03'0 0.0
2018-Jul-14 02:11N 29°44' W 095°03'0 0.0
2018-Jul-13 16:39N 29°44' W 095°03'0 0.0
2018-Jul-13 13:36N 29°44' W 095°03'0 0.2
2018-Jul-13 13:23N 29°44' W 095°03'0 0.0
2018-Jul-13 12:56N 29°44' W 095°03'0 0.0
2018-Jul-13 12:27N 29°44' W 095°03'0 0.0
2018-Jul-13 11:53N 29°44' W 095°03'0 0.0
2018-Jul-13 11:29N 29°44' W 095°03'0 0.0
2018-Jul-13 08:20N 29°44' W 095°03'0 0.0
2018-Jul-13 07:03N 29°44' W 095°03'0 0.0
2018-Jul-13 06:55N 29°44' W 095°03'0 0.0
2018-Jul-13 06:14N 29°44' W 095°03'0 0.0
2018-Jul-13 05:55N 29°44' W 095°03'0 0.0
2018-Jul-13 05:26N 29°44' W 095°03'0 0.0
2018-Jul-13 04:57N 29°44' W 095°03'0 0.0
2018-Jul-13 04:30N 29°44' W 095°03'0 0.0
2018-Jul-13 03:16N 29°44' W 095°03'0 0.0
2018-Jul-13 02:53N 29°44' W 095°03'0 0.0
2018-Jul-12 16:22N 29°44' W 095°03'4 0.8
2018-Jul-12 12:09N 29°47' W 095°05'0 0.0
2018-Jul-12 11:59N 29°47' W 095°05'0 0.0
2018-Jul-12 11:28N 29°47' W 095°05'0 0.1
2018-Jul-12 10:28N 29°47' W 095°05'0 0.0
2018-Jul-12 09:58N 29°47' W 095°05'0 0.0
2018-Jul-12 09:30N 29°47' W 095°05'0 0.0
2018-Jul-12 06:24N 29°47' W 095°05'0 0.3
2018-Jul-12 05:59N 29°47' W 095°05'6 0.2
2018-Jul-10 23:38N 29°45' W 095°11'1 5.7
2018-Jul-10 23:29N 29°45' W 095°10'2 0.2
2018-Jul-10 13:12N 29°46' W 095°07'0 0.0
2018-Jul-10 12:11N 29°46' W 095°07'0 0.0
2018-Jul-10 12:00N 29°46' W 095°07'  
Track history (hours):
 
Tides and Currents Weather Stations Pressure Air Temp Water Temp Dewpoint Dewpoint Depression Visibility Wind Speed Wind Dir Waves Ship Positions

George Allen

Owner: Blessey Enterprises, Inc., Harahan, LA. More information available from US FCC via Universal Licensing System and Coast Guard Vessel Documentation Center.

Last reported at 2018-Jul-20 10:30 UTC. Time now 2018-Jul-20 10:51 UTC.
Position N 29°47' W 095°05'.

Length 23 m; draft 3.5 m.

Type: Towing. MMSI: 367508440.

Date/timePositionNaut miles runAvg speedWind from/ knotsBaromVisibWave heightAir tempDewpointWater temp
2018-Jul-20 10:30N 29°47' W 095°05'0 0.0
2018-Jul-20 10:00N 29°47' W 095°05'0 0.0
2018-Jul-20 09:30N 29°47' W 095°05'0 0.0
2018-Jul-20 09:00N 29°47' W 095°05'0 0.0
2018-Jul-20 08:30N 29°47' W 095°05'0 0.0
2018-Jul-20 08:00N 29°47' W 095°05'0 0.0
2018-Jul-20 07:30N 29°47' W 095°05'0 0.0
2018-Jul-20 07:00N 29°47' W 095°05'0 0.0
2018-Jul-20 06:30N 29°47' W 095°05'0 0.0
2018-Jul-20 06:00N 29°47' W 095°05'0 0.0
2018-Jul-20 05:30N 29°47' W 095°05'0 0.0
2018-Jul-20 05:00N 29°47' W 095°05'0 0.0
2018-Jul-20 04:30N 29°47' W 095°05'0 0.0
2018-Jul-20 03:56N 29°47' W 095°05'0 0.0
2018-Jul-20 03:06N 29°47' W 095°05'0 0.0
2018-Jul-20 02:59N 29°47' W 095°05'0 0.0
2018-Jul-20 02:30N 29°47' W 095°05'3 0.4
2018-Jul-19 20:12N 29°45' W 095°04'1 0.4
2018-Jul-19 17:14N 29°44' W 095°03'0 0.0
2018-Jul-19 16:48N 29°44' W 095°03'0 0.0
2018-Jul-19 15:32N 29°44' W 095°03'0 0.0
2018-Jul-19 15:26N 29°44' W 095°03'0 0.0
2018-Jul-19 14:59N 29°44' W 095°03'0 0.0
2018-Jul-19 13:58N 29°44' W 095°03'0 0.0
2018-Jul-19 13:22N 29°44' W 095°03'0 0.0
2018-Jul-19 12:59N 29°44' W 095°03'0 0.0
2018-Jul-19 12:30N 29°44' W 095°03'0 0.0
2018-Jul-19 12:00N 29°44' W 095°03'0 0.0
2018-Jul-19 11:29N 29°44' W 095°03'0 0.0
2018-Jul-19 10:59N 29°44' W 095°03'0 0.0
2018-Jul-19 10:30N 29°44' W 095°03'0 0.0
2018-Jul-19 10:00N 29°44' W 095°03'0 0.0
2018-Jul-19 09:30N 29°44' W 095°03'0 0.0
2018-Jul-19 09:00N 29°44' W 095°03'0 0.0
2018-Jul-19 08:30N 29°44' W 095°03'0 0.0
2018-Jul-19 08:00N 29°44' W 095°03'0 0.0
2018-Jul-19 07:30N 29°44' W 095°03'0 0.0
2018-Jul-19 06:59N 29°44' W 095°03'0 0.0
2018-Jul-19 06:30N 29°44' W 095°03'0 0.0
2018-Jul-19 06:00N 29°44' W 095°03'0 0.0
2018-Jul-19 05:30N 29°44' W 095°03'0 0.0
2018-Jul-19 05:00N 29°44' W 095°03'0 0.0
2018-Jul-19 04:30N 29°44' W 095°03'0 0.0
2018-Jul-19 03:58N 29°44' W 095°03'0 0.0
2018-Jul-19 03:29N 29°44' W 095°03'0 0.0
2018-Jul-19 02:54N 29°44' W 095°03'0 0.0
2018-Jul-19 02:27N 29°44' W 095°03'0 0.1
2018-Jul-19 02:00N 29°44' W 095°03'4 0.5
2018-Jul-18 17:28N 29°47' W 095°05'0 0.0
2018-Jul-18 16:54N 29°47' W 095°05'0 0.0
2018-Jul-18 16:04N 29°47' W 095°05'0 0.0
2018-Jul-18 14:20N 29°47' W 095°05'0 0.0
2018-Jul-18 13:05N 29°47' W 095°05'0 1.4
2018-Jul-18 13:00N 29°47' W 095°05'0 0.0
2018-Jul-18 12:25N 29°47' W 095°05'0 0.1
2018-Jul-18 11:56N 29°47' W 095°05'0 0.0
2018-Jul-18 11:29N 29°47' W 095°05'0 0.0
2018-Jul-18 10:28N 29°47' W 095°05'0 0.1
2018-Jul-18 10:00N 29°47' W 095°05'0 0.0
2018-Jul-18 09:30N 29°47' W 095°05'0 0.0
2018-Jul-18 09:00N 29°47' W 095°05'0 0.0
2018-Jul-18 08:26N 29°47' W 095°05'0 0.0
2018-Jul-18 07:57N 29°47' W 095°05'0 0.1
2018-Jul-18 07:22N 29°47' W 095°05'0 0.0
2018-Jul-18 06:57N 29°47' W 095°05'0 0.0
2018-Jul-18 06:30N 29°47' W 095°05'0 0.0
2018-Jul-18 05:53N 29°47' W 095°05'0 0.2
2018-Jul-18 05:30N 29°47' W 095°05'0 0.2
2018-Jul-18 04:57N 29°47' W 095°05'0 0.0
2018-Jul-18 04:30N 29°47' W 095°05'0 0.0
2018-Jul-18 04:00N 29°47' W 095°05'0 0.0
2018-Jul-18 03:30N 29°47' W 095°05'2 0.8
2018-Jul-18 00:30N 29°45' W 095°04'1 0.9
2018-Jul-17 22:56N 29°44' W 095°03'0 0.2
2018-Jul-17 22:30N 29°44' W 095°03'4 2.2
2018-Jul-17 20:48N 29°47' W 095°05'0 0.0
2018-Jul-17 20:12N 29°47' W 095°05'0 0.0
2018-Jul-17 19:50N 29°47' W 095°05'0 0.0
2018-Jul-17 19:30N 29°47' W 095°05'0 0.0
2018-Jul-17 18:48N 29°47' W 095°05'0 0.0
2018-Jul-17 18:28N 29°47' W 095°05'0 0.0
2018-Jul-17 18:00N 29°47' W 095°05'0 0.0
2018-Jul-17 14:03N 29°47' W 095°05'0 0.3
2018-Jul-17 13:58N 29°47' W 095°05'1 1.6
2018-Jul-17 13:21N 29°46' W 095°05'0 0.9
2018-Jul-17 13:00N 29°46' W 095°05'3 5.2
2018-Jul-17 12:30N 29°44' W 095°03'2 3.0
2018-Jul-17 12:00N 29°44' W 095°01'1 1.1
2018-Jul-17 11:30N 29°44' W 095°02'4 7.1
2018-Jul-17 11:00N 29°46' W 095°05'0 0.6
2018-Jul-17 10:30N 29°47' W 095°05'0 0.0
2018-Jul-17 09:59N 29°47' W 095°05'0 0.0
2018-Jul-17 09:30N 29°47' W 095°05'0 0.0
2018-Jul-17 09:00N 29°47' W 095°05'0 0.0
2018-Jul-17 08:30N 29°47' W 095°05'0 0.0
2018-Jul-17 07:59N 29°47' W 095°05'0 0.0
2018-Jul-17 07:30N 29°47' W 095°05'0 0.0
2018-Jul-17 07:00N 29°47' W 095°05'0 0.1
2018-Jul-17 06:30N 29°47' W 095°05'0 0.1
2018-Jul-17 06:00N 29°47' W 095°05'1 1.2
2018-Jul-17 05:30N 29°47' W 095°05'0 0.1
2018-Jul-17 05:00N 29°47' W 095°05'0 0.0
2018-Jul-17 04:30N 29°47' W 095°05'0 0.1
2018-Jul-17 03:59N 29°47' W 095°05'0 0.3
2018-Jul-17 03:27N 29°47' W 095°05'0 0.0
2018-Jul-16 13:31N 29°47' W 095°05'0 0.0
2018-Jul-16 13:30N 29°47' W 095°05'0 0.0
2018-Jul-16 13:00N 29°47' W 095°05'0 0.1
2018-Jul-16 12:27N 29°47' W 095°05'0 0.3
2018-Jul-16 12:00N 29°47' W 095°05'0 0.0
2018-Jul-16 11:27N 29°47' W 095°05'0 0.1
2018-Jul-16 09:43N 29°47' W 095°05'0 0.0
2018-Jul-16 09:18N 29°47' W 095°05'0 0.0
2018-Jul-16 08:59N 29°47' W 095°05'0 0.0
2018-Jul-16 08:30N 29°47' W 095°05'0 0.0
2018-Jul-16 07:57N 29°47' W 095°05'0 0.1
2018-Jul-16 07:28N 29°47' W 095°05'1 1.3
2018-Jul-16 07:00N 29°47' W 095°05'0 0.4
2018-Jul-16 06:21N 29°47' W 095°05'2 2.6
2018-Jul-16 05:44N 29°46' W 095°06'1 1.4
2018-Jul-16 05:04N 29°46' W 095°07'0 0.2
2018-Jul-16 04:59N 29°46' W 095°07'0 0.0
2018-Jul-16 03:48N 29°46' W 095°07'0 0.0
2018-Jul-16 03:29N 29°46' W 095°07'1 0.1
2018-Jul-15 12:01N 29°45' W 095°06'0 5.0
2018-Jul-15 11:55N 29°46' W 095°05'3 6.8
2018-Jul-15 11:30N 29°44' W 095°03'0 0.0
2018-Jul-15 04:09N 29°44' W 095°03'0 0.0
2018-Jul-15 03:58N 29°44' W 095°03'0 0.1
2018-Jul-15 03:27N 29°44' W 095°03'0 0.0
2018-Jul-15 02:51N 29°44' W 095°03'0 0.0
2018-Jul-15 02:27N 29°44' W 095°03'0 0.0
2018-Jul-15 02:00N 29°44' W 095°03'0 0.0
2018-Jul-15 01:30N 29°44' W 095°03'0 0.0
2018-Jul-15 01:00N 29°44' W 095°03'0 0.0
2018-Jul-15 00:02N 29°44' W 095°03'0 0.1
2018-Jul-14 23:59N 29°44' W 095°03'0 0.0
2018-Jul-14 23:29N 29°44' W 095°03'0 0.1
2018-Jul-14 22:47N 29°44' W 095°03'0 0.0
2018-Jul-14 11:35N 29°44' W 095°03'0 0.0
2018-Jul-14 11:27N 29°44' W 095°03'0 0.0
2018-Jul-14 06:40N 29°44' W 095°03'0 0.0
2018-Jul-14 06:21N 29°44' W 095°03'0 0.0
2018-Jul-14 02:45N 29°44' W 095°03'0 0.0
2018-Jul-14 02:11N 29°44' W 095°03'0 0.0
2018-Jul-13 16:39N 29°44' W 095°03'0 0.0
2018-Jul-13 13:36N 29°44' W 095°03'0 0.2
2018-Jul-13 13:23N 29°44' W 095°03'0 0.0
2018-Jul-13 12:56N 29°44' W 095°03'0 0.0
2018-Jul-13 12:27N 29°44' W 095°03'0 0.0
2018-Jul-13 11:53N 29°44' W 095°03'0 0.0
2018-Jul-13 11:29N 29°44' W 095°03'0 0.0
2018-Jul-13 08:20N 29°44' W 095°03'0 0.0
2018-Jul-13 07:03N 29°44' W 095°03'0 0.0
2018-Jul-13 06:55N 29°44' W 095°03'0 0.0
2018-Jul-13 06:14N 29°44' W 095°03'0 0.0
2018-Jul-13 05:55N 29°44' W 095°03'0 0.0
2018-Jul-13 05:26N 29°44' W 095°03'0 0.0
2018-Jul-13 04:57N 29°44' W 095°03'0 0.0
2018-Jul-13 04:30N 29°44' W 095°03'0 0.0
2018-Jul-13 03:16N 29°44' W 095°03'0 0.0
2018-Jul-13 02:53N 29°44' W 095°03'0 0.0
2018-Jul-12 16:22N 29°44' W 095°03'4 0.8
2018-Jul-12 12:09N 29°47' W 095°05'0 0.0
2018-Jul-12 11:59N 29°47' W 095°05'0 0.0
2018-Jul-12 11:28N 29°47' W 095°05'0 0.1
2018-Jul-12 10:28N 29°47' W 095°05'0 0.0
2018-Jul-12 09:58N 29°47' W 095°05'0 0.0
2018-Jul-12 09:30N 29°47' W 095°05'0 0.0
2018-Jul-12 06:24N 29°47' W 095°05'0 0.3
2018-Jul-12 05:59N 29°47' W 095°05'6 0.2
2018-Jul-10 23:38N 29°45' W 095°11'1 5.7
2018-Jul-10 23:29N 29°45' W 095°10'2 0.2
2018-Jul-10 13:12N 29°46' W 095°07'0 0.0
2018-Jul-10 12:11N 29°46' W 095°07'0 0.0
2018-Jul-10 12:00N 29°46' W 095°07'  

Dump ship's entire track history